Pagina principale
METAR-TAF:

METAR-TAF

Aeroporti :

Aeroporto di Niamey-Diori Hamani

Niamey, Niger

latitudine: 13-29N, longitudine: 002-10E, altezza: 223 m

Osservazione

Il bollettino è stato emesso 48 minuti fa, alle 11:00 UTC
Vento 11 kt da nord-est
Temperature 29°C
Umidità 5%
Pressione 1016 hPa
Visibilità 10 km o più
nessuna nube inferiore a 1500 m e nessun cumulonembo

METAR: DRRN 211100Z 04011KT CAVOK 29/M15 Q1016 NOSIG

Ora: 12:48 (11:48 UTC)

Previsione

Il bollettino è stato emesso 48 minuti fa, alle 11:00 UTC
Previsione valida dal 21 alle 12 UTC al 22 alle 18 UTC
Vento 8 kt da nord
Visibilità: 8000 m
Temporaneamente
dal 21 alle 17 UTC al 21 alle 20 UTC
Visibilità: 3500 m
polvere diffusa
Temporaneamente
dal 22 alle 06 UTC al 22 alle 09 UTC
Visibilità: 3500 m
polvere diffusa

TAF: DRRN 211100Z 2112/2218 36008KT 8000 NSC TEMPO 2117/2120 3500 DU TEMPO 2206/2209 3500 DU

Osservazioni e previsioni meteorologiche di più di 4000 aeroporti (messaggi METAR e TAF).

Le stazioni disponibili sono rappresentate dai dischi gialli e rossi sulla carta.

Puntare il mouse per vedere il nome della stazione.

Clicca sopra per visualizzare le osservazioni e previsioni meteorologiche.

Per cambiare la mappa : fare clic sui pulsanti verdi con una croce nera per ingrandire, il pulsante verde con un trattino per diminuire, o sulla freccia verde per le mappe adiacenti.


METAR-TAF: